Time;durP1;ratioP1;P1;durP2;ratioP2;P2;SDS_P1;SDS_P2;PMS_P1;PMS_P2;Temp;Humidity;BMP_temperature;BMP_pressure;BME280_temperature;BME280_humidity;BME280_pressure;Samples;Min_cycle;Max_cycle;Signal;HPM_P1;HPM_P2
2021/10/15 00:01:29;;;;;;;9.13;8.43;;;;;;;12.45;86.27;100985.84;5055577;28;20205;-83
2021/10/15 00:03:56;;;;;;;10.13;8.33;;;;;;;12.36;86.76;100976.38;5050478;28;20838;-82
2021/10/15 00:06:22;;;;;;;8.77;8.03;;;;;;;12.36;86.94;100965.91;5041324;28;20248;-82
2021/10/15 00:08:49;;;;;;;7.17;6.67;;;;;;;12.37;86.74;100953.66;5040207;28;20210;-82
2021/10/15 00:11:15;;;;;;;8.93;8.03;;;;;;;12.35;86.89;100945.88;5041528;28;20198;-82
2021/10/15 00:13:42;;;;;;;7.00;6.40;;;;;;;12.39;86.99;100949.28;5041418;28;20198;-82
2021/10/15 00:16:08;;;;;;;7.67;7.03;;;;;;;12.37;86.89;100944.09;5048660;28;20205;-81
2021/10/15 00:18:36;;;;;;;6.93;6.33;;;;;;;12.39;87.36;100925.72;5044737;28;20214;-82
2021/10/15 00:21:03;;;;;;;8.47;7.40;;;;;;;12.31;87.11;100928.50;5041236;28;20194;-82
2021/10/15 00:23:29;;;;;;;7.53;6.83;;;;;;;12.39;87.55;100915.22;5039223;28;20256;-82
2021/10/15 00:25:55;;;;;;;7.20;6.73;;;;;;;12.38;87.58;100893.44;5042236;28;20201;-82
2021/10/15 00:28:22;;;;;;;7.20;6.50;;;;;;;12.37;87.54;100902.19;5057456;28;20228;-83
2021/10/15 00:30:48;;;;;;;7.33;6.83;;;;;;;12.34;87.77;100893.53;5044446;28;20210;-82
2021/10/15 00:33:15;;;;;;;7.07;6.47;;;;;;;12.38;87.92;100869.88;5055087;28;20217;-82
2021/10/15 00:35:42;;;;;;;6.40;5.90;;;;;;;12.38;87.56;100879.50;5042172;28;20198;-83
2021/10/15 00:38:09;;;;;;;7.40;6.80;;;;;;;12.38;87.65;100874.25;5051218;28;20633;-83
2021/10/15 00:40:35;;;;;;;6.97;6.50;;;;;;;12.40;87.43;100859.38;5049384;28;20718;-82
2021/10/15 00:43:02;;;;;;;7.30;6.60;;;;;;;12.44;87.74;100863.66;5039901;28;20195;-83
2021/10/15 00:45:28;;;;;;;7.07;6.47;;;;;;;12.47;87.27;100861.84;5041049;28;20194;-82
2021/10/15 00:47:55;;;;;;;7.53;6.93;;;;;;;12.46;87.56;100854.00;5055311;28;20267;-81
2021/10/15 00:50:21;;;;;;;6.90;6.30;;;;;;;12.45;86.87;100860.16;5048291;28;20219;-82
2021/10/15 00:52:49;;;;;;;7.27;6.53;;;;;;;12.42;86.97;100866.31;5053488;28;20213;-82
2021/10/15 00:55:15;;;;;;;6.70;6.07;;;;;;;12.41;86.72;100869.81;5055289;28;20220;-82
2021/10/15 00:57:42;;;;;;;7.63;7.03;;;;;;;12.40;86.45;100865.47;5053264;28;20643;-82
2021/10/15 01:00:09;;;;;;;6.57;6.07;;;;;;;12.37;86.31;100869.91;5051068;28;20194;-82
2021/10/15 01:02:36;;;;;;;6.47;5.60;;;;;;;12.27;85.71;100864.00;5060914;28;20194;-81
2021/10/15 01:05:02;;;;;;;6.73;6.20;;;;;;;12.22;86.70;100850.97;5047016;28;20651;-80
2021/10/15 01:07:30;;;;;;;6.50;5.97;;;;;;;12.23;86.55;100834.41;5045957;28;20195;-81
2021/10/15 01:09:58;;;;;;;6.60;5.70;;;;;;;12.18;85.78;100861.56;5054597;28;20280;-81
2021/10/15 01:12:25;;;;;;;5.97;5.50;;;;;;;12.19;86.11;100866.75;5046387;28;20252;-80
2021/10/15 01:14:51;;;;;;;5.93;5.43;;;;;;;12.19;86.05;100864.16;5056027;28;20264;-82
2021/10/15 01:17:18;;;;;;;6.03;5.40;;;;;;;12.19;85.97;100856.28;5044385;28;20240;-80
2021/10/15 01:19:44;;;;;;;6.43;5.13;;;;;;;12.13;85.92;100859.03;5038168;28;20198;-82
2021/10/15 01:22:12;;;;;;;5.20;4.80;;;;;;;12.06;85.71;100855.63;5014211;28;1015930;-81
2021/10/15 01:24:38;;;;;;;6.27;5.00;;;;;;;12.09;85.93;100857.34;5051040;28;20244;-81
2021/10/15 01:27:06;;;;;;;5.67;5.13;;;;;;;12.11;85.76;100847.72;5049812;28;20620;-82
2021/10/15 01:29:33;;;;;;;6.10;4.60;;;;;;;12.18;86.24;100831.00;5043141;28;20749;-81
2021/10/15 01:31:59;;;;;;;4.87;4.47;;;;;;;12.14;85.49;100860.75;5047604;28;20275;-80
2021/10/15 01:34:26;;;;;;;4.73;4.33;;;;;;;12.15;85.54;100869.44;5052650;28;20229;-81
2021/10/15 01:36:52;;;;;;;4.10;3.80;;;;;;;12.14;85.05;100879.06;5046828;28;20198;-81
2021/10/15 01:39:20;;;;;;;4.37;4.00;;;;;;;12.14;84.72;100886.06;5039153;28;20218;-81
2021/10/15 01:41:46;;;;;;;4.77;4.37;;;;;;;12.15;84.94;100874.69;5038292;28;20228;-81
2021/10/15 01:44:13;;;;;;;5.20;4.23;;;;;;;12.18;84.13;100899.03;5038297;28;20194;-81
2021/10/15 01:46:39;;;;;;;4.60;4.20;;;;;;;12.14;84.11;100900.00;5039354;28;20198;-81
2021/10/15 01:49:05;;;;;;;5.07;4.67;;;;;;;12.17;84.19;100902.56;5037915;28;20268;-82
2021/10/15 01:51:32;;;;;;;3.93;3.63;;;;;;;12.10;83.97;100900.94;5044128;28;20213;-82
2021/10/15 01:53:58;;;;;;;4.10;3.70;;;;;;;12.11;85.06;100864.28;5049202;28;20276;-82
2021/10/15 01:56:26;;;;;;;10.80;4.40;;;;;;;12.10;84.52;100873.00;5054473;28;20256;-81
2021/10/15 01:58:52;;;;;;;5.07;4.57;;;;;;;12.02;84.17;100877.53;5039279;28;20267;-81
2021/10/15 02:01:18;;;;;;;5.10;4.70;;;;;;;12.04;84.04;100882.75;5048553;28;20202;-81
2021/10/15 02:03:45;;;;;;;4.63;4.23;;;;;;;12.02;83.88;100871.44;5038913;28;20194;-82
2021/10/15 02:06:11;;;;;;;7.97;4.67;;;;;;;12.04;83.92;100869.66;5037402;28;20202;-82
2021/10/15 02:08:37;;;;;;;6.50;4.60;;;;;;;12.04;83.75;100886.22;5042883;28;20222;-82
2021/10/15 02:11:05;;;;;;;4.47;3.80;;;;;;;12.05;83.96;100881.81;5055842;28;20732;-82
2021/10/15 02:13:33;;;;;;;5.60;5.00;;;;;;;12.09;83.79;100887.00;5037801;28;20273;-82
2021/10/15 02:16:00;;;;;;;3.83;3.60;;;;;;;12.05;83.65;100889.69;5037597;28;20207;-82
2021/10/15 02:18:26;;;;;;;5.20;4.70;;;;;;;12.05;83.47;100882.72;5050015;28;20214;-82
2021/10/15 02:20:53;;;;;;;13.00;5.00;;;;;;;12.03;83.00;100905.44;5037699;28;20248;-82
2021/10/15 02:23:19;;;;;;;4.40;4.10;;;;;;;12.06;83.49;100871.34;5037750;28;20240;-81
2021/10/15 02:25:46;;;;;;;5.23;4.57;;;;;;;12.06;83.43;100867.88;5043955;28;20240;-82
2021/10/15 02:28:12;;;;;;;4.37;3.90;;;;;;;12.08;83.72;100860.84;5048540;28;20223;-82
2021/10/15 02:30:40;;;;;;;7.10;4.20;;;;;;;12.12;83.37;100871.22;5049909;28;20232;-81
2021/10/15 02:33:06;;;;;;;4.67;4.20;;;;;;;12.08;83.52;100876.56;5043829;28;20218;-81
2021/10/15 02:35:33;;;;;;;5.50;5.00;;;;;;;12.10;82.28;100898.31;5037849;28;20203;-82
2021/10/15 02:38:00;;;;;;;5.47;4.37;;;;;;;12.14;82.88;100894.75;5037803;28;20778;-83
2021/10/15 02:40:27;;;;;;;7.83;4.83;;;;;;;12.15;83.21;100880.78;5040233;28;20212;-81
2021/10/15 02:42:54;;;;;;;5.60;4.97;;;;;;;12.09;82.79;100888.72;5050535;28;20198;-82
2021/10/15 02:45:20;;;;;;;5.03;4.47;;;;;;;12.10;82.97;100883.47;5045894;28;20206;-82
2021/10/15 02:47:48;;;;;;;7.07;5.00;;;;;;;12.03;82.55;100868.81;5051314;28;20626;-81
2021/10/15 02:50:14;;;;;;;5.70;5.07;;;;;;;12.03;82.32;100884.50;5047284;28;20198;-81
2021/10/15 02:52:41;;;;;;;5.93;5.33;;;;;;;12.01;82.81;100867.06;5049835;28;20221;-82
2021/10/15 02:55:08;;;;;;;5.87;5.27;;;;;;;12.06;82.63;100867.88;5048894;28;20201;-82
2021/10/15 02:57:35;;;;;;;5.97;5.40;;;;;;;12.08;82.79;100858.25;5048346;28;20221;-81
2021/10/15 03:00:01;;;;;;;6.40;5.90;;;;;;;12.06;82.28;100884.44;5041558;28;20660;-82
2021/10/15 03:02:27;;;;;;;6.47;5.17;;;;;;;12.05;82.72;100864.41;5048859;28;20202;-81
2021/10/15 03:04:55;;;;;;;6.27;5.50;;;;;;;12.06;82.63;100867.88;5040286;28;20202;-82
2021/10/15 03:07:21;;;;;;;7.17;5.93;;;;;;;12.05;82.62;100863.50;5044346;28;20220;-81
2021/10/15 03:09:49;;;;;;;7.13;6.43;;;;;;;12.02;82.43;100856.59;5044714;28;20256;-81
2021/10/15 03:12:15;;;;;;;6.47;5.90;;;;;;;12.01;82.50;100869.69;5039111;28;20615;-81
2021/10/15 03:14:44;;;;;;;6.60;6.00;;;;;;;11.96;82.34;100871.56;5045454;28;20285;-81
2021/10/15 03:17:10;;;;;;;7.30;6.60;;;;;;;12.00;82.53;100845.28;5044926;28;20201;-82
2021/10/15 03:19:36;;;;;;;8.03;5.47;;;;;;;12.06;83.07;100824.25;5037177;28;20227;-82
2021/10/15 03:22:04;;;;;;;5.90;5.40;;;;;;;12.06;82.81;100836.47;5046444;28;20246;-81
2021/10/15 03:24:31;;;;;;;5.50;5.00;;;;;;;12.04;82.68;100839.09;5039335;28;20297;-82
2021/10/15 03:26:57;;;;;;;5.47;4.97;;;;;;;12.02;82.85;100830.44;5044037;28;20202;-82
2021/10/15 03:29:23;;;;;;;6.60;5.47;;;;;;;11.90;81.87;100860.28;5037442;28;20274;-81
2021/10/15 03:31:50;;;;;;;7.13;5.53;;;;;;;11.95;82.59;100843.66;5042220;28;20268;-82
2021/10/15 03:34:16;;;;;;;6.80;5.63;;;;;;;11.98;82.19;100847.06;5045487;28;20283;-81
2021/10/15 03:36:42;;;;;;;5.87;5.27;;;;;;;11.99;82.21;100848.81;5045655;28;20202;-82
2021/10/15 03:39:11;;;;;;;6.27;5.63;;;;;;;12.00;82.09;100839.19;5043557;28;20225;-82
2021/10/15 03:41:38;;;;;;;6.20;5.40;;;;;;;12.05;82.14;100843.47;5039252;28;20297;-82
2021/10/15 03:44:05;;;;;;;6.70;5.33;;;;;;;12.04;81.98;100857.44;5038624;28;20289;-82
2021/10/15 03:46:32;;;;;;;6.23;5.63;;;;;;;12.05;81.36;100856.56;5038214;28;20270;-83
2021/10/15 03:48:59;;;;;;;5.70;5.10;;;;;;;12.04;81.75;100848.72;5048313;28;20269;-84
2021/10/15 03:51:25;;;;;;;6.13;5.50;;;;;;;12.06;82.00;100839.94;5041745;28;20233;-82
2021/10/15 03:53:51;;;;;;;5.70;5.13;;;;;;;12.09;81.88;100823.31;5045432;28;20218;-82
2021/10/15 03:56:19;;;;;;;5.57;5.17;;;;;;;11.98;80.99;100851.44;5037396;28;20199;-82
2021/10/15 03:58:45;;;;;;;6.13;5.30;;;;;;;12.01;81.00;100869.69;5053378;28;20221;-82
2021/10/15 04:01:12;;;;;;;7.10;5.70;;;;;;;12.02;81.19;100867.06;5049483;28;20236;-83
2021/10/15 04:03:38;;;;;;;5.87;5.37;;;;;;;12.05;81.04;100855.66;5056194;28;20201;-82
2021/10/15 04:06:05;;;;;;;5.53;5.00;;;;;;;12.10;81.05;100851.22;5038596;28;20329;-82
2021/10/15 04:08:31;;;;;;;6.53;4.93;;;;;;;12.07;81.02;100851.25;5045564;28;20223;-82
2021/10/15 04:10:57;;;;;;;6.37;5.77;;;;;;;11.92;80.29;100876.81;5045642;28;20229;-81
2021/10/15 04:13:25;;;;;;;6.37;5.77;;;;;;;11.93;80.79;100854.13;5043718;28;20213;-82
2021/10/15 04:15:51;;;;;;;5.70;5.20;;;;;;;11.90;81.11;100844.59;5040533;28;20225;-81
2021/10/15 04:18:18;;;;;;;6.50;5.63;;;;;;;11.90;81.12;100836.75;5041700;28;20657;-82
2021/10/15 04:20:44;;;;;;;5.43;4.80;;;;;;;11.89;81.55;100819.34;5041317;28;20205;-82
2021/10/15 04:23:12;;;;;;;5.63;5.13;;;;;;;11.96;81.50;100801.75;5048859;28;20274;-82
2021/10/15 04:25:38;;;;;;;8.40;5.47;;;;;;;12.01;82.01;100792.09;5046150;28;20201;-82
2021/10/15 04:28:05;;;;;;;5.70;4.90;;;;;;;12.02;81.43;100804.25;5056938;28;20248;-81
2021/10/15 04:30:32;;;;;;;5.87;5.30;;;;;;;11.97;81.03;100828.78;5053809;28;20214;-82
2021/10/15 04:32:59;;;;;;;4.97;4.53;;;;;;;11.98;80.68;100826.16;5043204;28;20226;-82
2021/10/15 04:35:25;;;;;;;6.27;4.97;;;;;;;11.97;80.47;100819.19;5039442;28;20206;-82
2021/10/15 04:37:52;;;;;;;6.93;4.93;;;;;;;12.04;80.65;100820.78;5040651;28;20214;-81
2021/10/15 04:40:18;;;;;;;4.43;4.00;;;;;;;11.90;79.76;100849.81;5038946;28;20241;-82
2021/10/15 04:42:44;;;;;;;5.37;4.93;;;;;;;11.93;79.97;100848.91;5052154;28;20224;-81
2021/10/15 04:45:11;;;;;;;5.30;4.10;;;;;;;11.88;79.74;100864.66;5058684;28;20224;-81
2021/10/15 04:47:39;;;;;;;4.30;3.90;;;;;;;11.85;78.90;100867.34;5038672;28;20222;-80
2021/10/15 04:50:06;;;;;;;4.40;4.00;;;;;;;11.90;79.17;100855.06;5046740;28;20249;-82
2021/10/15 04:52:33;;;;;;;4.30;3.93;;;;;;;11.89;79.30;100860.31;5049028;28;20669;-81
2021/10/15 04:54:59;;;;;;;5.50;4.33;;;;;;;11.91;79.53;100846.34;5045069;28;20222;-82
2021/10/15 04:57:25;;;;;;;4.37;3.97;;;;;;;11.77;78.86;100869.19;5046817;28;20746;-80
2021/10/15 04:59:52;;;;;;;8.50;4.20;;;;;;;11.84;78.72;100852.53;5041694;28;20216;-80
2021/10/15 05:02:18;;;;;;;4.17;3.77;;;;;;;11.78;78.62;100854.38;5052403;28;20228;-81
2021/10/15 05:04:46;;;;;;;5.00;3.83;;;;;;;11.87;79.63;100830.66;5046753;28;20241;-82
2021/10/15 05:07:12;;;;;;;4.10;3.27;;;;;;;11.78;78.37;100846.53;5044035;28;20220;-81
2021/10/15 05:09:39;;;;;;;5.40;4.17;;;;;;;11.86;78.43;100836.81;5049801;28;20221;-82
2021/10/15 05:12:13;;;;;;;4.90;3.40;;;;;;;11.90;78.84;100836.75;5055569;28;20225;-81
2021/10/15 05:14:40;;;;;;;4.03;3.00;;;;;;;11.83;78.05;100863.00;5039973;28;20217;-81
2021/10/15 05:17:06;;;;;;;4.97;3.40;;;;;;;11.76;77.66;100867.47;5047803;28;20259;-82
2021/10/15 05:19:33;;;;;;;6.27;3.30;;;;;;;11.76;77.86;100850.94;5038364;28;20648;-82
2021/10/15 05:22:01;;;;;;;4.80;3.40;;;;;;;11.75;77.61;100859.66;5044526;28;20672;-81
2021/10/15 05:24:29;;;;;;;3.90;3.43;;;;;;;11.73;77.24;100867.53;5047173;28;20244;-81
2021/10/15 05:26:55;;;;;;;6.17;3.43;;;;;;;11.75;77.44;100854.44;5040743;28;20293;-81
2021/10/15 05:29:22;;;;;;;3.70;3.40;;;;;;;11.76;77.22;100864.00;5043821;28;20215;-80
2021/10/15 05:31:48;;;;;;;4.43;3.43;;;;;;;11.75;77.06;100855.28;5050077;28;20202;-81
2021/10/15 05:34:14;;;;;;;5.23;3.40;;;;;;;11.69;76.87;100871.97;5048089;28;20240;-81
2021/10/15 05:36:41;;;;;;;3.43;3.13;;;;;;;11.74;77.57;100853.56;5048254;28;20201;-80
2021/10/15 05:39:09;;;;;;;4.47;3.37;;;;;;;11.79;77.84;100829.94;5047659;28;20229;-82
2021/10/15 05:41:35;;;;;;;4.10;3.10;;;;;;;11.76;77.23;100857.03;5040517;28;20202;-81
2021/10/15 05:44:02;;;;;;;4.40;2.97;;;;;;;11.81;77.14;100839.47;5051005;28;20221;-81
2021/10/15 05:46:28;;;;;;;3.63;3.33;;;;;;;11.71;77.07;100841.41;5046873;28;20201;-81
2021/10/15 05:48:54;;;;;;;5.40;3.13;;;;;;;11.67;77.21;100844.97;5050854;28;20568;-82
2021/10/15 05:51:22;;;;;;;4.60;3.10;;;;;;;11.75;77.71;100816.06;5040082;28;20198;-82
2021/10/15 05:53:51;;;;;;;3.50;2.73;;;;;;;11.85;77.87;100799.34;5038414;28;20218;-79
2021/10/15 05:59:04;;;;;;;3.30;3.00;;;;;;;11.76;76.87;100830.00;5035779;28;20225;-81
2021/10/15 06:01:32;;;;;;;4.17;3.03;;;;;;;11.81;77.85;100804.63;5045389;28;20562;-81
2021/10/15 06:04:12;;;;;;;4.60;3.93;;;;;;;11.82;77.38;100804.59;5050289;28;20198;-80
2021/10/15 06:14:54;;;;;;;4.43;3.00;;;;;;;11.68;77.81;100770.84;5050439;28;20208;-79
2021/10/15 06:17:20;;;;;;;3.87;3.17;;;;;;;11.71;78.37;100756.84;5050455;28;20205;-80
2021/10/15 06:19:52;;;;;;;3.33;3.03;;;;;;;11.68;78.05;100773.47;5050262;28;20201;-81
2021/10/15 06:22:18;;;;;;;6.50;3.53;;;;;;;11.78;78.63;100748.00;5051460;28;20235;-80
2021/10/15 06:24:45;;;;;;;3.70;3.40;;;;;;;11.68;78.21;100775.22;5059311;28;20201;-81
2021/10/15 06:27:12;;;;;;;4.10;3.60;;;;;;;11.73;79.04;100731.53;5046899;28;20202;-80
2021/10/15 06:29:39;;;;;;;4.83;3.47;;;;;;;11.75;78.41;100744.59;5054582;28;20229;-80
2021/10/15 06:32:08;;;;;;;3.60;3.13;;;;;;;11.67;77.74;100761.31;5042448;28;20205;-80
2021/10/15 06:34:34;;;;;;;3.87;3.50;;;;;;;11.77;78.56;100758.50;5040560;28;20222;-80
2021/10/15 06:37:01;;;;;;;4.10;3.00;;;;;;;11.75;78.03;100768.97;5039568;28;20621;-81
2021/10/15 06:39:27;;;;;;;5.87;3.60;;;;;;;11.76;77.79;100785.56;5043007;28;20244;-80
2021/10/15 06:41:53;;;;;;;5.80;3.70;;;;;;;11.76;78.68;100762.03;5051485;28;20201;-81
2021/10/15 06:44:21;;;;;;;4.93;3.97;;;;;;;11.62;78.81;100751.81;5042648;28;20686;-80
2021/10/15 06:46:48;;;;;;;4.77;3.87;;;;;;;11.59;79.76;100708.25;5044782;28;20202;-81
2021/10/15 06:49:14;;;;;;;4.30;3.90;;;;;;;11.68;80.74;100662.78;5039910;28;20222;-81
2021/10/15 06:51:40;;;;;;;3.70;3.40;;;;;;;11.65;79.66;100671.53;5039459;28;20886;-81
2021/10/15 06:54:07;;;;;;;4.43;4.03;;;;;;;11.63;78.95;100696.00;5048540;28;20229;-81
2021/10/15 06:56:33;;;;;;;6.03;4.17;;;;;;;11.75;79.63;100687.91;5042999;28;20227;-80
2021/10/15 06:59:00;;;;;;;4.10;3.67;;;;;;;11.77;79.18;100706.19;5044042;28;20223;-80
2021/10/15 07:01:27;;;;;;;4.47;3.97;;;;;;;11.85;79.78;100704.28;5049818;28;20611;-81
2021/10/15 07:03:54;;;;;;;5.53;4.30;;;;;;;11.85;79.61;100712.13;5045459;28;20194;-80
2021/10/15 07:06:20;;;;;;;5.37;4.50;;;;;;;11.78;79.11;100718.38;5046412;28;20197;-81
2021/10/15 07:08:47;;;;;;;7.43;4.27;;;;;;;11.85;79.48;100730.44;5037718;28;20614;-81
2021/10/15 07:11:14;;;;;;;4.70;4.30;;;;;;;11.84;78.76;100739.19;5037392;28;20198;-81
2021/10/15 07:13:40;;;;;;;4.33;3.80;;;;;;;11.90;79.03;100729.50;5037861;28;20701;-82
2021/10/15 07:16:06;;;;;;;5.83;4.27;;;;;;;11.90;79.27;100729.50;5046099;28;20197;-81
2021/10/15 07:18:34;;;;;;;5.57;4.00;;;;;;;11.89;79.52;100732.13;5039232;28;20218;-80
2021/10/15 07:21:01;;;;;;;4.90;3.70;;;;;;;11.88;79.98;100712.94;5049364;28;20198;-80
2021/10/15 07:23:27;;;;;;;5.93;4.07;;;;;;;11.89;79.80;100719.94;5045368;28;20217;-80
2021/10/15 07:25:53;;;;;;;4.50;4.10;;;;;;;11.87;79.21;100726.91;5056073;28;20197;-80
2021/10/15 07:28:20;;;;;;;5.27;4.60;;;;;;;11.95;80.33;100708.47;5049705;28;20247;-79
2021/10/15 07:30:46;;;;;;;4.90;4.47;;;;;;;11.92;79.50;100721.63;5045007;28;20205;-80
2021/10/15 07:33:12;;;;;;;4.70;4.30;;;;;;;11.88;80.00;100730.38;5046249;28;20259;-80
2021/10/15 07:35:40;;;;;;;6.10;4.63;;;;;;;11.80;79.83;100714.84;5039458;28;20303;-78
2021/10/15 07:38:07;;;;;;;5.33;4.27;;;;;;;11.85;80.65;100696.44;5039602;28;20833;-79
2021/10/15 07:40:33;;;;;;;6.00;5.40;;;;;;;11.89;80.63;100687.66;5042084;28;20202;-80
2021/10/15 07:42:59;;;;;;;4.10;3.80;;;;;;;11.96;80.31;100681.41;5044868;28;20224;-80
2021/10/15 07:45:26;;;;;;;4.30;3.80;;;;;;;11.98;80.75;100671.78;5037701;28;20210;-80
2021/10/15 07:47:54;;;;;;;4.77;4.30;;;;;;;11.97;80.86;100664.84;5044895;28;20222;-80
2021/10/15 07:50:21;;;;;;;5.87;4.40;;;;;;;11.97;80.40;100662.22;5038561;28;20666;-80
2021/10/15 07:52:49;;;;;;;6.10;4.50;;;;;;;11.97;80.57;100659.63;5050836;28;20232;-81
2021/10/15 07:55:16;;;;;;;4.43;3.80;;;;;;;12.00;81.00;100642.97;5050060;28;20766;-81
2021/10/15 07:57:42;;;;;;;6.20;5.60;;;;;;;12.11;81.79;100615.69;5051945;28;20226;-80
2021/10/15 08:00:11;;;;;;;4.90;4.40;;;;;;;12.13;80.86;100597.34;5038598;28;20229;-81
2021/10/15 08:02:39;;;;;;;6.60;4.63;;;;;;;12.08;80.92;100618.38;5054522;28;20201;-81
2021/10/15 08:05:07;;;;;;;5.60;5.10;;;;;;;12.10;80.91;100605.25;5058962;28;20621;-81
2021/10/15 08:07:33;;;;;;;6.07;4.47;;;;;;;12.06;81.04;100608.84;5059262;28;20206;-81
2021/10/15 08:10:01;;;;;;;9.17;4.27;;;;;;;12.08;81.48;100579.13;5058414;28;20636;-80
2021/10/15 08:12:27;;;;;;;4.80;4.47;;;;;;;12.02;81.18;100588.88;5057414;28;20213;-80
2021/10/15 08:14:53;;;;;;;5.47;4.90;;;;;;;12.01;81.12;100582.78;5058006;28;20231;-81
2021/10/15 08:17:20;;;;;;;4.80;4.23;;;;;;;12.06;81.49;100569.59;5058813;28;20267;-80
2021/10/15 08:19:46;;;;;;;4.93;4.33;;;;;;;12.06;81.28;100575.66;5058900;28;20243;-80
2021/10/15 08:22:12;;;;;;;4.77;4.30;;;;;;;12.14;81.43;100569.41;5058888;28;20628;-81
2021/10/15 08:24:39;;;;;;;6.37;4.63;;;;;;;12.12;81.07;100593.00;5059042;28;20209;-80
2021/10/15 08:27:07;;;;;;;4.63;4.23;;;;;;;12.11;81.26;100580.81;5059218;28;20210;-80
2021/10/15 08:29:38;;;;;;;6.73;4.37;;;;;;;12.12;81.49;100606.06;5058198;28;20275;-80
2021/10/15 08:32:05;;;;;;;7.10;4.33;;;;;;;12.15;81.16;100600.78;5052914;28;20247;-80
2021/10/15 08:34:32;;;;;;;7.40;4.73;;;;;;;12.19;80.84;100617.25;5059763;28;20285;-81
2021/10/15 08:36:58;;;;;;;7.83;4.70;;;;;;;12.21;81.45;100605.88;5059103;28;20741;-81
2021/10/15 08:39:26;;;;;;;5.40;4.87;;;;;;;12.31;80.83;100633.56;5059137;28;20198;-81
2021/10/15 08:41:53;;;;;;;5.03;4.53;;;;;;;12.24;80.68;100663.38;5060020;28;20205;-80
2021/10/15 08:44:21;;;;;;;6.70;4.67;;;;;;;12.18;82.05;100633.88;5059775;28;20676;-81
2021/10/15 08:46:47;;;;;;;6.75;5.55;;;;;;;12.18;81.85;100639.09;5058941;28;20446;-82
2021/10/15 08:49:14;;;;;;;6.67;5.10;;;;;;;12.14;82.49;100635.69;5058699;28;20221;-80
2021/10/15 08:51:40;;;;;;;9.57;4.67;;;;;;;12.07;83.45;100605.31;5058084;28;20753;-80
2021/10/15 08:54:07;;;;;;;8.50;6.33;;;;;;;11.96;84.85;100545.38;5057625;28;20255;-80
2021/10/15 08:56:35;;;;;;;7.93;7.10;;;;;;;11.81;87.75;100452.41;5057482;28;20214;-79
2021/10/15 08:59:03;;;;;;;9.10;8.30;;;;;;;11.70;90.20;100376.84;5056986;28;20228;-79
2021/10/15 09:01:40;;;;;;;12.13;9.23;;;;;;;11.52;91.61;100317.16;5050358;28;20773;-78
2021/10/15 09:04:07;;;;;;;11.55;10.65;;;;;;;11.28;93.57;100275.06;5044384;28;20438;-77
2021/10/15 09:06:36;;;;;;;13.00;11.20;;;;;;;11.26;95.19;100221.13;5036920;28;20213;-78
2021/10/15 09:09:04;;;;;;;13.57;12.27;;;;;;;11.19;95.62;100180.38;5054051;28;20237;-78
2021/10/15 09:11:33;;;;;;;12.80;11.90;;;;;;;11.02;96.64;100181.66;5052686;28;20213;-78
2021/10/15 09:14:08;;;;;;;13.37;12.47;;;;;;;10.91;97.47;100161.00;5045576;28;20688;-79
2021/10/15 09:17:01;;;;;;;12.77;11.60;;;;;;;10.82;98.43;100136.88;5045106;28;20263;-79
2021/10/15 09:19:30;;;;;;;12.37;11.43;;;;;;;10.91;98.65;100134.03;5046138;28;20222;-80
2021/10/15 09:22:09;;;;;;;12.70;11.40;;;;;;;10.84;99.07;100142.91;5045007;28;20629;-79
2021/10/15 09:24:40;;;;;;;12.73;11.63;;;;;;;10.86;99.04;100136.78;5045094;28;20233;-80
2021/10/15 09:27:15;;;;;;;13.13;12.07;;;;;;;10.87;99.24;100150.69;5045714;28;20202;-79
2021/10/15 09:29:43;;;;;;;12.40;11.47;;;;;;;10.83;99.08;100177.78;5045528;28;20228;-78
2021/10/15 09:32:11;;;;;;;12.73;11.63;;;;;;;10.80;99.94;100209.16;5051552;28;20210;-80
2021/10/15 09:34:38;;;;;;;13.07;11.97;;;;;;;10.67;100.00;100182.50;5048330;28;20271;-79
2021/10/15 09:37:12;;;;;;;4.80;4.40;;;;;;;10.21;100.00;100212.19;5046311;28;20202;-79
2021/10/15 09:39:39;;;;;;;2.87;2.30;;;;;;;10.04;99.25;100236.00;5047019;28;20222;-79
2021/10/15 09:42:16;;;;;;;2.07;1.80;;;;;;;9.96;99.01;100251.81;5047057;28;20734;-78
2021/10/15 09:44:42;;;;;;;1.50;1.40;;;;;;;9.83;99.67;100245.97;5047072;28;20248;-78
2021/10/15 09:47:16;;;;;;;1.57;1.40;;;;;;;9.83;100.00;100230.34;5044995;28;20201;-78
2021/10/15 09:49:51;;;;;;;1.67;1.37;;;;;;;9.88;100.00;100235.47;5044747;28;20228;-77
2021/10/15 09:52:32;;;;;;;3.23;1.40;;;;;;;9.86;100.00;100219.84;5045466;28;20190;-78
2021/10/15 09:55:01;;;;;;;2.05;1.40;;;;;;;9.92;100.00;100222.31;5044186;28;20863;-78
2021/10/15 09:57:29;;;;;;;1.97;1.00;;;;;;;10.00;100.00;100227.38;5044456;28;20198;-78
2021/10/15 09:59:56;;;;;;;3.10;1.57;;;;;;;10.01;100.00;100234.34;5046157;28;20205;-79
2021/10/15 10:02:24;;;;;;;2.37;1.20;;;;;;;10.02;100.00;100246.47;5048567;28;20316;-78
2021/10/15 10:04:52;;;;;;;1.90;1.03;;;;;;;9.99;100.00;100258.69;5046547;28;20235;-79
2021/10/15 10:07:19;;;;;;;10.10;2.27;;;;;;;10.09;100.00;100260.25;5044765;28;20253;-78
2021/10/15 10:09:46;;;;;;;2.77;0.80;;;;;;;10.05;100.00;100269.00;5048188;28;20194;-78
2021/10/15 10:12:13;;;;;;;0.70;0.70;;;;;;;10.13;100.00;100272.34;5043085;28;20303;-79
2021/10/15 10:14:39;;;;;;;1.40;0.77;;;;;;;10.06;100.00;100286.38;5042962;28;20595;-78
2021/10/15 10:17:08;;;;;;;0.60;0.60;;;;;;;10.03;100.00;100278.63;5045055;28;20197;-79
2021/10/15 10:19:39;;;;;;;0.87;0.60;;;;;;;10.00;100.00;100279.53;5042692;28;20756;-78
2021/10/15 10:22:06;;;;;;;1.63;0.90;;;;;;;10.07;100.00;100269.88;5044452;28;20202;-79
2021/10/15 10:24:35;;;;;;;1.37;0.97;;;;;;;10.02;100.00;100279.53;5041606;28;20627;-80
2021/10/15 10:27:01;;;;;;;1.77;1.20;;;;;;;10.02;100.00;100297.78;5035198;28;20841;-79
2021/10/15 10:29:29;;;;;;;2.30;1.37;;;;;;;10.10;100.00;100288.91;5035634;28;20271;-80
2021/10/15 10:32:14;;;;;;;1.63;1.40;;;;;;;9.98;100.00;100298.72;5044906;28;20300;-81
2021/10/15 10:34:42;;;;;;;2.77;2.33;;;;;;;10.04;100.00;100296.00;5053829;28;20214;-79
2021/10/15 10:37:12;;;;;;;1.47;1.37;;;;;;;9.95;100.00;100330.94;5048671;28;20226;-81
2021/10/15 10:39:41;;;;;;;1.77;1.20;;;;;;;9.86;98.90;100378.88;5048383;28;20218;-80
2021/10/15 10:42:09;;;;;;;1.60;0.80;;;;;;;9.83;98.62;100418.03;5048330;28;20219;-80
2021/10/15 10:44:36;;;;;;;0.80;0.80;;;;;;;9.80;98.63;100425.03;5048534;28;20250;-80
2021/10/15 10:47:15;;;;;;;1.60;1.10;;;;;;;9.79;98.80;100418.09;5046949;28;20543;-80
2021/10/15 10:50:05;;;;;;;0.67;0.50;;;;;;;9.73;98.48;100414.72;5044971;28;20332;-80
2021/10/15 10:52:32;;;;;;;1.93;0.60;;;;;;;9.69;98.21;100426.09;5047370;28;20294;-80
2021/10/15 10:54:59;;;;;;;0.40;0.40;;;;;;;9.65;97.78;100429.63;5044568;28;20229;-79
2021/10/15 10:57:28;;;;;;;0.73;0.73;;;;;;;9.62;97.83;100444.44;5045574;28;20645;-80
2021/10/15 11:00:19;;;;;;;0.53;0.50;;;;;;;9.62;98.06;100440.06;5046402;28;20228;-81
2021/10/15 11:02:47;;;;;;;0.97;0.60;;;;;;;9.57;97.34;100461.88;5049236;28;20205;-80
2021/10/15 11:05:29;;;;;;;0.50;0.20;;;;;;;9.59;96.58;100479.19;5048294;28;20201;-80
2021/10/15 11:08:30;;;;;;;0.50;0.50;;;;;;;9.61;96.32;100513.06;5047385;28;20252;-80
2021/10/15 11:11:43;;;;;;;0.40;0.40;;;;;;;9.68;95.88;100546.84;5046485;28;20257;-79
2021/10/15 11:14:35;;;;;;;0.50;0.50;;;;;;;9.84;96.10;100544.88;5049012;28;20260;-82
2021/10/15 11:17:09;;;;;;;0.50;0.40;;;;;;;9.80;96.04;100543.22;5038863;28;20201;-82
2021/10/15 11:19:35;;;;;;;0.40;0.40;;;;;;;9.87;96.06;100557.91;5046913;28;20282;-81
2021/10/15 11:22:04;;;;;;;0.50;0.50;;;;;;;9.93;96.90;100536.09;5044178;28;20255;-80
2021/10/15 11:24:30;;;;;;;0.47;0.47;;;;;;;9.89;96.52;100535.28;5043925;28;20202;-81
2021/10/15 11:26:56;;;;;;;0.50;0.50;;;;;;;9.98;96.14;100551.66;5046791;28;20576;-80
2021/10/15 11:29:23;;;;;;;0.67;0.63;;;;;;;9.99;96.03;100561.19;5046480;28;20267;-80
2021/10/15 11:31:54;;;;;;;0.67;0.67;;;;;;;9.91;96.46;100551.75;5054242;28;20262;-81
2021/10/15 11:34:20;;;;;;;2.17;0.60;;;;;;;10.00;97.17;100529.88;5051415;28;20457;-81
2021/10/15 11:36:47;;;;;;;0.50;0.40;;;;;;;9.87;97.63;100508.34;5050817;28;20213;-82
2021/10/15 11:39:14;;;;;;;1.47;0.30;;;;;;;9.82;96.37;100533.63;5051440;28;20221;-82